Time;durP1;ratioP1;P1;durP2;ratioP2;P2;SDS_P1;SDS_P2;PMS_P1;PMS_P2;Temp;Humidity;BMP_temperature;BMP_pressure;BME280_temperature;BME280_humidity;BME280_pressure;Samples;Min_cycle;Max_cycle;Signal;HPM_P1;HPM_P2
2023/01/30 00:02:16;;;;;;;21.25;9.93;;;;;;;;;;4965574;28;20029;-78
2023/01/30 00:05:02;;;;;;;28.60;11.55;;;;;;;;;;4966117;28;20061;-77
2023/01/30 00:07:47;;;;;;;23.77;10.80;;;;;;;;;;4966454;28;20019;-78
2023/01/30 00:10:33;;;;;;;23.73;10.32;;;;;;;;;;4979941;28;20019;-79
2023/01/30 00:13:18;;;;;;;18.85;9.38;;;;;;;;;;4980169;28;20073;-78
2023/01/30 00:16:04;;;;;;;20.85;9.93;;;;;;;;;;4965250;28;20026;-77
2023/01/30 00:18:50;;;;;;;18.92;9.48;;;;;;;;;;4979799;28;20124;-77
2023/01/30 00:21:35;;;;;;;17.50;9.18;;;;;;;;;;4978008;28;20030;-78
2023/01/30 00:24:21;;;;;;;17.13;8.60;;;;;;;;;;4989965;28;20451;-77
2023/01/30 00:27:07;;;;;;;16.30;8.57;;;;;;;;;;4981068;28;20460;-78
2023/01/30 00:29:52;;;;;;;18.17;9.27;;;;;;;;;;4982214;28;20027;-78
2023/01/30 00:32:38;;;;;;;16.15;8.95;;;;;;;;;;4965376;28;20028;-77
2023/01/30 00:35:27;;;;;;;17.45;8.52;;;;;;;;;;4982500;28;20030;-78
2023/01/30 00:38:13;;;;;;;16.60;8.77;;;;;;;;;;4998902;28;20024;-78
2023/01/30 00:40:58;;;;;;;19.23;8.73;;;;;;;;;;4984992;28;20030;-78
2023/01/30 00:47:07;;;;;;;17.73;9.38;;;;;;;;;;4997374;28;20022;-77
2023/01/30 00:49:53;;;;;;;18.67;9.23;;;;;;;;;;4983879;28;20018;-77
2023/01/30 00:52:39;;;;;;;17.33;8.57;;;;;;;;;;4996399;28;20030;-77
2023/01/30 00:55:24;;;;;;;15.43;8.68;;;;;;;;;;4983672;28;20038;-78
2023/01/30 00:58:11;;;;;;;21.00;9.32;;;;;;;;;;4997743;28;20033;-77
2023/01/30 01:00:56;;;;;;;18.17;9.23;;;;;;;;;;4996128;28;20336;-78
2023/01/30 01:03:42;;;;;;;17.05;9.20;;;;;;;;;;4984776;28;20432;-78
2023/01/30 01:06:27;;;;;;;16.30;8.52;;;;;;;;;;4982672;28;20061;-77
2023/01/30 01:09:13;;;;;;;16.77;8.93;;;;;;;;;;4996819;28;20022;-77
2023/01/30 01:11:58;;;;;;;16.00;8.70;;;;;;;;;;4996912;28;20109;-77
2023/01/30 01:14:44;;;;;;;18.73;9.38;;;;;;;;;;4983180;28;20026;-77
2023/01/30 01:17:30;;;;;;;18.88;8.80;;;;;;;;;;4996877;28;20400;-77
2023/01/30 01:20:16;;;;;;;17.33;9.13;;;;;;;;;;4983314;28;20451;-78
2023/01/30 01:23:01;;;;;;;19.00;8.73;;;;;;;;;;4995353;28;20026;-77
2023/01/30 01:25:47;;;;;;;17.25;8.27;;;;;;;;;;4982686;28;20325;-78
2023/01/30 01:28:33;;;;;;;15.80;8.35;;;;;;;;;;4996488;28;20328;-78
2023/01/30 01:31:18;;;;;;;15.27;8.68;;;;;;;;;;4996589;28;20550;-77
2023/01/30 01:34:04;;;;;;;17.38;8.68;;;;;;;;;;4996405;28;20041;-78
2023/01/30 01:36:49;;;;;;;16.27;8.40;;;;;;;;;;4996432;28;20491;-78
2023/01/30 01:42:39;;;;;;;16.50;8.40;;;;;;;;;;4995917;28;20097;-78
2023/01/30 01:45:24;;;;;;;15.80;8.25;;;;;;;;;;4996492;28;20121;-77
2023/01/30 01:48:14;;;;;;;16.30;8.43;;;;;;;;;;4996490;28;20439;-77
2023/01/30 01:51:12;;;;;;;17.20;9.07;;;;;;;;;;4996678;28;20117;-78
2023/01/30 01:54:01;;;;;;;18.25;8.88;;;;;;;;;;5003804;28;20022;-77
2023/01/30 01:56:47;;;;;;;16.70;9.00;;;;;;;;;;5004678;28;20046;-77
2023/01/30 01:59:38;;;;;;;18.25;8.88;;;;;;;;;;5005942;28;20435;-78
2023/01/30 02:02:24;;;;;;;17.40;9.18;;;;;;;;;;4996593;28;20033;-78
2023/01/30 02:05:11;;;;;;;18.65;9.45;;;;;;;;;;5000804;28;20010;-78
2023/01/30 02:07:59;;;;;;;17.02;9.40;;;;;;;;;;4999689;28;20101;-78
2023/01/30 02:10:55;;;;;;;19.88;10.35;;;;;;;;;;4986058;28;20022;-78
2023/01/30 02:13:41;;;;;;;19.17;10.05;;;;;;;;;;4998631;28;20033;-78
2023/01/30 02:16:26;;;;;;;20.67;11.02;;;;;;;;;;4986024;28;20026;-78
2023/01/30 02:19:38;;;;;;;19.73;10.20;;;;;;;;;;4985429;28;20045;-78
2023/01/30 02:22:35;;;;;;;21.70;10.55;;;;;;;;;;4985724;28;20022;-79
2023/01/30 02:25:20;;;;;;;23.15;11.45;;;;;;;;;;4999693;28;20498;-78
2023/01/30 02:28:25;;;;;;;25.20;12.07;;;;;;;;;;4999503;28;20050;-79
2023/01/30 02:31:31;;;;;;;24.15;12.90;;;;;;;;;;4997690;28;20030;-78
2023/01/30 02:34:19;;;;;;;29.95;15.15;;;;;;;;;;5000053;28;20386;-78
2023/01/30 02:37:24;;;;;;;32.22;16.58;;;;;;;;;;4978582;28;20054;-78
2023/01/30 02:40:09;;;;;;;32.90;15.98;;;;;;;;;;4979391;28;20023;-77
2023/01/30 02:43:04;;;;;;;32.78;16.60;;;;;;;;;;4978971;28;20121;-77
2023/01/30 02:45:55;;;;;;;39.42;17.98;;;;;;;;;;4979420;28;20018;-77
2023/01/30 02:48:45;;;;;;;32.53;15.95;;;;;;;;;;4978300;28;20019;-78
2023/01/30 02:51:32;;;;;;;35.22;17.33;;;;;;;;;;4978223;28;20023;-77
2023/01/30 02:54:18;;;;;;;32.97;16.77;;;;;;;;;;4978562;28;20049;-78
2023/01/30 02:57:15;;;;;;;34.88;17.48;;;;;;;;;;4978751;28;20057;-77
2023/01/30 03:00:03;;;;;;;35.20;17.77;;;;;;;;;;4977452;28;20023;-78
2023/01/30 03:03:09;;;;;;;32.78;17.02;;;;;;;;;;4976656;28;20046;-78
2023/01/30 03:06:01;;;;;;;32.80;16.73;;;;;;;;;;4977578;28;20022;-78
2023/01/30 03:08:46;;;;;;;29.75;16.23;;;;;;;;;;4976797;28;20027;-78
2023/01/30 03:11:42;;;;;;;28.80;15.43;;;;;;;;;;4978400;28;20023;-79
2023/01/30 03:14:57;;;;;;;30.58;15.57;;;;;;;;;;4977194;28;20026;-79
2023/01/30 03:17:44;;;;;;;31.88;16.02;;;;;;;;;;4973572;28;20026;-78
2023/01/30 03:20:29;;;;;;;31.13;16.00;;;;;;;;;;4977668;28;20474;-78
2023/01/30 03:23:15;;;;;;;31.98;14.90;;;;;;;;;;4977106;28;20073;-79
2023/01/30 03:26:02;;;;;;;28.42;15.27;;;;;;;;;;4978404;28;20018;-78
2023/01/30 03:28:49;;;;;;;28.75;15.10;;;;;;;;;;4978036;28;20074;-78
2023/01/30 03:31:35;;;;;;;31.10;15.00;;;;;;;;;;4977066;28;20014;-78
2023/01/30 03:34:20;;;;;;;28.42;14.10;;;;;;;;;;4978318;28;20403;-78
2023/01/30 03:37:06;;;;;;;28.60;14.60;;;;;;;;;;4996682;28;20456;-78
2023/01/30 03:39:51;;;;;;;29.80;15.85;;;;;;;;;;4997632;28;20119;-78
2023/01/30 03:42:37;;;;;;;32.63;15.57;;;;;;;;;;4997114;28;20065;-79
2023/01/30 03:45:23;;;;;;;33.35;15.43;;;;;;;;;;4982460;28;20025;-78
2023/01/30 03:48:08;;;;;;;27.88;14.45;;;;;;;;;;4996965;28;20117;-78
2023/01/30 03:50:54;;;;;;;31.15;14.75;;;;;;;;;;4997125;28;20464;-77
2023/01/30 03:53:39;;;;;;;28.38;14.73;;;;;;;;;;4982856;28;20026;-79
2023/01/30 03:56:25;;;;;;;28.63;14.77;;;;;;;;;;4996420;28;20030;-79
2023/01/30 03:59:11;;;;;;;32.20;15.10;;;;;;;;;;4982545;28;20014;-77
2023/01/30 04:01:56;;;;;;;30.27;14.48;;;;;;;;;;4997513;28;20171;-78
2023/01/30 04:04:42;;;;;;;30.63;15.65;;;;;;;;;;4982663;28;20089;-76
2023/01/30 04:07:31;;;;;;;35.40;16.50;;;;;;;;;;4996560;28;20037;-77
2023/01/30 04:10:18;;;;;;;30.38;15.27;;;;;;;;;;4996238;28;20022;-78
2023/01/30 04:13:04;;;;;;;32.10;14.85;;;;;;;;;;4996111;28;20041;-79
2023/01/30 04:15:50;;;;;;;32.65;15.30;;;;;;;;;;4996620;28;20022;-78
2023/01/30 04:18:35;;;;;;;30.02;13.93;;;;;;;;;;4984556;28;20030;-77
2023/01/30 04:21:21;;;;;;;33.25;15.45;;;;;;;;;;5001449;28;20497;-77
2023/01/30 04:24:06;;;;;;;29.05;15.18;;;;;;;;;;5002028;28;20117;-78
2023/01/30 04:26:52;;;;;;;36.60;15.70;;;;;;;;;;4997665;28;20022;-78
2023/01/30 04:29:37;;;;;;;34.92;15.63;;;;;;;;;;4996737;28;20031;-79
2023/01/30 04:32:24;;;;;;;30.33;15.10;;;;;;;;;;4996623;28;20092;-78
2023/01/30 04:35:10;;;;;;;31.60;14.90;;;;;;;;;;4996866;28;20061;-79
2023/01/30 04:37:55;;;;;;;33.85;15.48;;;;;;;;;;4997166;28;20037;-78
2023/01/30 04:40:46;;;;;;;29.45;14.55;;;;;;;;;;4982666;28;20022;-78
2023/01/30 04:43:31;;;;;;;33.45;15.68;;;;;;;;;;4997050;28;20031;-79
2023/01/30 04:46:17;;;;;;;33.75;15.52;;;;;;;;;;4982915;28;20113;-76
2023/01/30 04:49:03;;;;;;;31.23;16.27;;;;;;;;;;4982880;28;20046;-77
2023/01/30 04:51:48;;;;;;;40.33;20.38;;;;;;;;;;4995021;28;20033;-78
2023/01/30 04:54:34;;;;;;;41.03;20.50;;;;;;;;;;4995879;28;20032;-77
2023/01/30 04:57:19;;;;;;;48.60;22.80;;;;;;;;;;4996036;28;20092;-77
2023/01/30 05:00:06;;;;;;;43.20;22.52;;;;;;;;;;4995830;28;20029;-77
2023/01/30 05:02:51;;;;;;;49.38;23.88;;;;;;;;;;4995435;28;20018;-76
2023/01/30 05:05:37;;;;;;;43.10;24.20;;;;;;;;;;4995536;28;20018;-77
2023/01/30 05:08:23;;;;;;;48.33;22.95;;;;;;;;;;4995571;28;20026;-77
2023/01/30 05:11:08;;;;;;;49.08;22.55;;;;;;;;;;4981950;28;20030;-76
2023/01/30 05:13:54;;;;;;;47.17;23.15;;;;;;;;;;4981808;28;20027;-76
2023/01/30 05:16:40;;;;;;;43.88;22.30;;;;;;;;;;4982042;28;20030;-78
2023/01/30 05:19:25;;;;;;;43.67;21.63;;;;;;;;;;4982682;28;20018;-79
2023/01/30 05:22:11;;;;;;;47.67;21.58;;;;;;;;;;5015444;28;20065;-79
2023/01/30 05:24:56;;;;;;;41.97;20.98;;;;;;;;;;4999792;28;20082;-78
2023/01/30 05:27:42;;;;;;;42.97;20.90;;;;;;;;;;5012039;28;20034;-80
2023/01/30 05:30:28;;;;;;;41.13;19.60;;;;;;;;;;5013375;28;20018;-78
2023/01/30 05:33:13;;;;;;;39.88;18.92;;;;;;;;;;5011929;28;20057;-79
2023/01/30 05:35:59;;;;;;;37.17;18.75;;;;;;;;;;5014036;28;20022;-77
2023/01/30 05:38:44;;;;;;;37.38;19.70;;;;;;;;;;5011812;28;20042;-81
2023/01/30 05:41:30;;;;;;;38.97;19.60;;;;;;;;;;5001536;28;20069;-80
2023/01/30 05:44:16;;;;;;;36.72;18.17;;;;;;;;;;5021874;28;20019;-79
2023/01/30 05:47:01;;;;;;;34.63;19.08;;;;;;;;;;4987326;28;20459;-80
2023/01/30 05:49:47;;;;;;;35.38;17.73;;;;;;;;;;4984974;28;20034;-80
2023/01/30 05:52:32;;;;;;;39.30;19.25;;;;;;;;;;4994005;28;20046;-79
2023/01/30 05:55:18;;;;;;;37.05;18.45;;;;;;;;;;5011651;28;20042;-79
2023/01/30 05:58:03;;;;;;;38.17;19.70;;;;;;;;;;5004423;28;20440;-79
2023/01/30 06:00:49;;;;;;;39.08;19.67;;;;;;;;;;4999786;28;20505;-79
2023/01/30 06:03:35;;;;;;;39.05;20.73;;;;;;;;;;4993533;28;20042;-79
2023/01/30 06:06:21;;;;;;;41.83;21.38;;;;;;;;;;5008026;28;20045;-79
2023/01/30 06:09:09;;;;;;;41.00;19.85;;;;;;;;;;4988002;28;20367;-79
2023/01/30 06:11:54;;;;;;;42.58;19.88;;;;;;;;;;4999751;28;20019;-80
2023/01/30 06:14:41;;;;;;;39.28;18.92;;;;;;;;;;4998891;28;20018;-80
2023/01/30 06:17:26;;;;;;;40.75;20.02;;;;;;;;;;4999734;28;20105;-80
2023/01/30 06:20:12;;;;;;;44.72;21.15;;;;;;;;;;4998739;28;20454;-80
2023/01/30 06:22:57;;;;;;;41.03;20.73;;;;;;;;;;4988885;28;20045;-79
2023/01/30 06:25:43;;;;;;;44.08;20.77;;;;;;;;;;4998917;28;20101;-80
2023/01/30 06:28:29;;;;;;;41.30;20.35;;;;;;;;;;4998442;28;20026;-80
2023/01/30 06:31:15;;;;;;;47.22;22.40;;;;;;;;;;4999342;28;20080;-79
2023/01/30 06:34:01;;;;;;;41.13;21.88;;;;;;;;;;4998975;28;20363;-79
2023/01/30 06:36:46;;;;;;;46.13;23.05;;;;;;;;;;4998584;28;20105;-79
2023/01/30 06:39:32;;;;;;;49.30;25.90;;;;;;;;;;4997901;28;20358;-80
2023/01/30 06:42:17;;;;;;;42.78;23.20;;;;;;;;;;4997118;28;20346;-79
2023/01/30 06:45:03;;;;;;;38.63;20.92;;;;;;;;;;4998163;28;20359;-79
2023/01/30 06:47:49;;;;;;;39.75;21.38;;;;;;;;;;4997730;28;20347;-80
2023/01/30 06:50:34;;;;;;;44.40;21.77;;;;;;;;;;4999256;28;20022;-79
2023/01/30 06:53:21;;;;;;;39.38;21.17;;;;;;;;;;5007306;28;20033;-80
2023/01/30 06:56:07;;;;;;;42.33;22.10;;;;;;;;;;4989505;28;20068;-80
2023/01/30 06:58:52;;;;;;;52.20;24.67;;;;;;;;;;5013085;28;20018;-81
2023/01/30 07:01:38;;;;;;;37.28;18.23;;;;;;;;;;5002180;28;20027;-80
2023/01/30 07:04:24;;;;;;;32.60;17.20;;;;;;;;;;4997146;28;20034;-80
2023/01/30 07:07:09;;;;;;;32.13;17.08;;;;;;;;;;4984275;28;20448;-80
2023/01/30 07:09:55;;;;;;;34.50;17.40;;;;;;;;;;4997549;28;20049;-80
2023/01/30 07:12:41;;;;;;;38.58;19.25;;;;;;;;;;4984214;28;20023;-79
2023/01/30 07:15:26;;;;;;;41.80;20.45;;;;;;;;;;4983445;28;20058;-80
2023/01/30 07:18:12;;;;;;;42.25;20.85;;;;;;;;;;4998619;28;20019;-79
2023/01/30 07:20:58;;;;;;;34.90;18.25;;;;;;;;;;5003025;28;20049;-79
2023/01/30 07:23:45;;;;;;;40.88;21.55;;;;;;;;;;5003722;28;20084;-80
2023/01/30 07:26:31;;;;;;;36.95;17.73;;;;;;;;;;4988851;28;20377;-79
2023/01/30 07:29:16;;;;;;;33.45;17.63;;;;;;;;;;5001648;28;20019;-80
2023/01/30 07:32:02;;;;;;;33.08;17.20;;;;;;;;;;5000177;28;20041;-79
2023/01/30 07:34:48;;;;;;;29.35;15.55;;;;;;;;;;5002635;28;20371;-78
2023/01/30 07:37:33;;;;;;;27.10;15.63;;;;;;;;;;5000076;28;20359;-80
2023/01/30 07:40:19;;;;;;;28.83;13.75;;;;;;;;;;5001380;28;20028;-80
2023/01/30 07:43:07;;;;;;;28.08;13.63;;;;;;;;;;4997908;28;20018;-80
2023/01/30 07:45:52;;;;;;;28.20;13.48;;;;;;;;;;4998019;28;20340;-80
2023/01/30 07:48:38;;;;;;;27.42;13.90;;;;;;;;;;4997065;28;20026;-80
2023/01/30 07:51:24;;;;;;;27.58;13.90;;;;;;;;;;4982605;28;20022;-81
2023/01/30 07:54:09;;;;;;;26.70;13.52;;;;;;;;;;4983068;28;20018;-82
2023/01/30 07:56:55;;;;;;;28.33;13.60;;;;;;;;;;4997023;28;20046;-78
2023/01/30 07:59:41;;;;;;;25.75;13.40;;;;;;;;;;4997155;28;20454;-80
2023/01/30 08:02:27;;;;;;;27.80;13.52;;;;;;;;;;4983175;28;20038;-79
2023/01/30 08:05:12;;;;;;;24.70;13.23;;;;;;;;;;4996948;28;20030;-80
2023/01/30 08:07:59;;;;;;;31.02;16.77;;;;;;;;;;4996604;28;20037;-79
2023/01/30 08:10:47;;;;;;;26.85;13.02;;;;;;;;;;4995524;28;20029;-80
2023/01/30 08:13:33;;;;;;;25.08;13.18;;;;;;;;;;4996741;28;20049;-80
2023/01/30 08:16:19;;;;;;;24.40;12.95;;;;;;;;;;4996809;28;20101;-81
2023/01/30 08:19:05;;;;;;;25.67;13.07;;;;;;;;;;4996382;28;20057;-79
2023/01/30 08:21:50;;;;;;;25.00;12.75;;;;;;;;;;4983036;28;20379;-79
2023/01/30 08:24:36;;;;;;;27.60;13.18;;;;;;;;;;4996819;28;20026;-80
2023/01/30 08:27:21;;;;;;;27.30;13.95;;;;;;;;;;4996657;28;20018;-79
2023/01/30 08:30:08;;;;;;;28.25;14.55;;;;;;;;;;4982319;28;20387;-79
2023/01/30 08:32:57;;;;;;;25.75;12.90;;;;;;;;;;4996386;28;20026;-79
2023/01/30 08:35:42;;;;;;;27.92;13.45;;;;;;;;;;4975647;28;20043;-77
2023/01/30 08:38:28;;;;;;;26.38;14.27;;;;;;;;;;4975935;28;20030;-80
2023/01/30 08:41:14;;;;;;;26.58;13.85;;;;;;;;;;4989063;28;20031;-80
2023/01/30 08:43:59;;;;;;;26.80;13.68;;;;;;;;;;4977109;28;20026;-79
2023/01/30 08:46:45;;;;;;;28.75;14.18;;;;;;;;;;4977443;28;20023;-79
2023/01/30 08:49:30;;;;;;;27.45;13.52;;;;;;;;;;4975614;28;20022;-79
2023/01/30 08:52:16;;;;;;;24.73;13.57;;;;;;;;;;4976071;28;20033;-79
2023/01/30 08:55:02;;;;;;;28.17;14.65;;;;;;;;;;4976215;28;20499;-79
2023/01/30 08:57:48;;;;;;;29.52;14.77;;;;;;;;;;4976353;28;20022;-79
2023/01/30 09:00:33;;;;;;;27.45;14.82;;;;;;;;;;4975855;28;20343;-80
2023/01/30 09:03:19;;;;;;;29.00;14.15;;;;;;;;;;4976316;28;20030;-80
2023/01/30 09:06:04;;;;;;;29.00;14.27;;;;;;;;;;4976946;28;20019;-79
2023/01/30 09:08:50;;;;;;;30.70;15.38;;;;;;;;;;4974834;28;20046;-80
2023/01/30 09:11:36;;;;;;;26.60;13.80;;;;;;;;;;4974447;28;20456;-79
2023/01/30 09:14:21;;;;;;;28.63;14.73;;;;;;;;;;4976404;28;20026;-80
2023/01/30 09:17:07;;;;;;;26.80;13.75;;;;;;;;;;4976943;28;20109;-80
2023/01/30 09:19:53;;;;;;;26.95;13.50;;;;;;;;;;4977168;28;20318;-81
2023/01/30 09:22:41;;;;;;;26.48;14.13;;;;;;;;;;4975305;28;20038;-78
2023/01/30 09:25:26;;;;;;;42.85;22.92;;;;;;;;;;4975094;28;20023;-80
2023/01/30 09:28:12;;;;;;;27.10;14.27;;;;;;;;;;4975599;28;20475;-79
2023/01/30 09:30:58;;;;;;;26.38;13.60;;;;;;;;;;4975689;28;20077;-80
2023/01/30 09:33:44;;;;;;;31.73;15.18;;;;;;;;;;4975085;28;20078;-80
2023/01/30 09:36:29;;;;;;;35.35;15.20;;;;;;;;;;4989324;28;20042;-80
2023/01/30 09:39:15;;;;;;;32.30;16.02;;;;;;;;;;4995280;28;20030;-79
2023/01/30 09:42:09;;;;;;;35.35;16.95;;;;;;;;;;4997472;28;20081;-79
2023/01/30 09:45:04;;;;;;;34.72;16.33;;;;;;;;;;4988789;28;20164;-77
2023/01/30 09:48:11;;;;;;;33.00;16.25;;;;;;;;;;4990080;28;20022;-77
2023/01/30 09:50:56;;;;;;;35.75;16.55;;;;;;;;;;5005368;28;20435;-78
2023/01/30 09:53:45;;;;;;;33.17;16.02;;;;;;;;;;4987001;28;20443;-78
2023/01/30 09:56:31;;;;;;;33.67;15.68;;;;;;;;;;4997066;28;20121;-79
2023/01/30 09:59:20;;;;;;;29.25;13.70;;;;;;;;;;4982099;28;20094;-78
2023/01/30 10:02:24;;;;;;;32.53;14.85;;;;;;;;;;4996525;28;20056;-79
2023/01/30 10:05:10;;;;;;;31.85;14.88;;;;;;;;;;4980896;28;20085;-78
2023/01/30 10:08:08;;;;;;;29.67;14.40;;;;;;;;;;4980576;28;20026;-78
2023/01/30 10:11:07;;;;;;;26.55;13.43;;;;;;;;;;4994781;28;20030;-80
2023/01/30 10:13:53;;;;;;;27.52;13.63;;;;;;;;;;4980822;28;20061;-79
2023/01/30 10:16:57;;;;;;;31.55;13.82;;;;;;;;;;4980553;28;20025;-80
2023/01/30 10:19:56;;;;;;;29.35;13.75;;;;;;;;;;4995288;28;20082;-79
2023/01/30 10:22:53;;;;;;;27.42;13.10;;;;;;;;;;4994169;28;20027;-79
2023/01/30 10:25:45;;;;;;;28.58;13.75;;;;;;;;;;4981185;28;20022;-79
2023/01/30 10:28:33;;;;;;;28.30;13.13;;;;;;;;;;4984008;28;20033;-78
2023/01/30 10:31:22;;;;;;;22.75;11.95;;;;;;;;;;4998013;28;20113;-78
2023/01/30 10:34:13;;;;;;;22.50;11.27;;;;;;;;;;4998441;28;20363;-78
2023/01/30 10:37:07;;;;;;;25.55;12.48;;;;;;;;;;4978200;28;20129;-80
2023/01/30 10:40:02;;;;;;;22.55;11.40;;;;;;;;;;4977686;28;20054;-78
2023/01/30 10:43:08;;;;;;;25.52;12.88;;;;;;;;;;4978273;28;20424;-80
2023/01/30 10:46:14;;;;;;;27.45;14.88;;;;;;;;;;4978930;28;20027;-80
2023/01/30 10:49:12;;;;;;;30.48;15.00;;;;;;;;;;4977756;28;20100;-78
2023/01/30 10:52:00;;;;;;;27.55;13.73;;;;;;;;;;4977744;28;20026;-79
2023/01/30 10:54:55;;;;;;;25.25;12.32;;;;;;;;;;4978781;28;20463;-79
2023/01/30 10:57:56;;;;;;;23.65;12.30;;;;;;;;;;4978267;28;20081;-79
2023/01/30 11:00:42;;;;;;;24.55;12.88;;;;;;;;;;4978582;28;20444;-79
2023/01/30 11:03:46;;;;;;;24.55;13.13;;;;;;;;;;4977050;28;20023;-78
2023/01/30 11:06:32;;;;;;;25.48;12.40;;;;;;;;;;4978721;28;20085;-79
2023/01/30 11:09:17;;;;;;;22.17;11.85;;;;;;;;;;4978015;28;20106;-78
2023/01/30 11:12:03;;;;;;;23.48;12.50;;;;;;;;;;4977855;28;20023;-79
2023/01/30 11:14:50;;;;;;;24.77;13.25;;;;;;;;;;4977933;28;20027;-79
2023/01/30 11:17:37;;;;;;;25.38;13.07;;;;;;;;;;4977631;28;20077;-78
2023/01/30 11:20:23;;;;;;;25.50;12.93;;;;;;;;;;4977828;28;20018;-79
2023/01/30 11:23:24;;;;;;;25.23;12.18;;;;;;;;;;4976449;28;20447;-79
2023/01/30 11:26:17;;;;;;;23.70;12.77;;;;;;;;;;4978333;28;20456;-78
2023/01/30 11:29:15;;;;;;;21.50;11.82;;;;;;;;;;4977795;28;20034;-80
2023/01/30 11:32:19;;;;;;;22.55;12.30;;;;;;;;;;4976396;28;20081;-80
2023/01/30 11:35:05;;;;;;;24.20;13.18;;;;;;;;;;4978944;28;20034;-79
2023/01/30 11:37:52;;;;;;;22.27;12.40;;;;;;;;;;4996833;28;20045;-79
2023/01/30 11:40:39;;;;;;;24.85;13.60;;;;;;;;;;4983104;28;20030;-78
2023/01/30 11:43:27;;;;;;;22.48;12.40;;;;;;;;;;4999032;28;20137;-79
2023/01/30 11:46:15;;;;;;;24.70;12.80;;;;;;;;;;4984874;28;20023;-78
2023/01/30 11:49:11;;;;;;;24.08;12.95;;;;;;;;;;4999903;28;20316;-79
2023/01/30 11:51:57;;;;;;;24.30;11.68;;;;;;;;;;4997043;28;20033;-77
2023/01/30 11:54:44;;;;;;;22.13;12.15;;;;;;;;;;4996703;28;20033;-79
2023/01/30 11:57:37;;;;;;;28.75;14.52;;;;;;;;;;4996303;28;20115;-79
2023/01/30 12:00:25;;;;;;;25.80;13.85;;;;;;;;;;4983228;28;20041;-80
2023/01/30 12:03:14;;;;;;;23.90;12.82;;;;;;;;;;4982809;28;20022;-80
2023/01/30 12:06:00;;;;;;;23.27;13.43;;;;;;;;;;4997563;28;20042;-80
2023/01/30 12:08:50;;;;;;;24.85;12.85;;;;;;;;;;4985211;28;20073;-80
2023/01/30 12:11:35;;;;;;;24.02;12.95;;;;;;;;;;5004578;28;20348;-77
2023/01/30 12:14:27;;;;;;;22.63;11.65;;;;;;;;;;4996722;28;20026;-79
2023/01/30 12:17:20;;;;;;;20.70;11.80;;;;;;;;;;4995802;28;20494;-79
2023/01/30 12:20:11;;;;;;;21.95;12.02;;;;;;;;;;4996062;28;20026;-80
2023/01/30 12:23:21;;;;;;;21.77;11.65;;;;;;;;;;4995303;28;20034;-79
2023/01/30 12:26:39;;;;;;;22.30;12.52;;;;;;;;;;4981822;28;20042;-79
2023/01/30 12:29:30;;;;;;;24.90;13.55;;;;;;;;;;4964187;28;20027;-79
2023/01/30 12:32:20;;;;;;;24.30;13.30;;;;;;;;;;4998995;28;20090;-78
2023/01/30 12:35:14;;;;;;;23.33;13.05;;;;;;;;;;4982382;28;20471;-78
2023/01/30 12:38:16;;;;;;;28.80;14.60;;;;;;;;;;4984304;28;20058;-78
2023/01/30 12:41:20;;;;;;;22.80;12.95;;;;;;;;;;4997582;28;20470;-79
2023/01/30 12:44:14;;;;;;;28.33;14.55;;;;;;;;;;4982300;28;20089;-79
2023/01/30 12:47:18;;;;;;;23.58;13.73;;;;;;;;;;4996940;28;20023;-78
2023/01/30 12:50:22;;;;;;;25.75;13.95;;;;;;;;;;4996457;28;20109;-78
2023/01/30 12:53:18;;;;;;;26.95;14.75;;;;;;;;;;4995238;28;20348;-78
2023/01/30 12:56:07;;;;;;;26.48;14.95;;;;;;;;;;4995928;28;20396;-77
2023/01/30 12:59:11;;;;;;;32.25;16.83;;;;;;;;;;4995750;28;20030;-77
2023/01/30 13:02:00;;;;;;;31.70;16.95;;;;;;;;;;4981306;28;20124;-77
2023/01/30 13:05:06;;;;;;;31.08;15.80;;;;;;;;;;4981423;28;20026;-77
2023/01/30 13:07:57;;;;;;;29.85;16.02;;;;;;;;;;4966339;28;20026;-77
2023/01/30 13:11:03;;;;;;;30.55;16.35;;;;;;;;;;4980714;28;20363;-75
2023/01/30 13:13:54;;;;;;;28.40;15.88;;;;;;;;;;4966138;28;20037;-76
2023/01/30 13:16:39;;;;;;;27.15;15.05;;;;;;;;;;4981447;28;20539;-75
2023/01/30 13:19:33;;;;;;;28.95;15.70;;;;;;;;;;4979200;28;20046;-77
2023/01/30 13:22:34;;;;;;;27.00;14.68;;;;;;;;;;4986703;28;20041;-75
2023/01/30 13:25:29;;;;;;;30.00;16.02;;;;;;;;;;5003548;28;20113;-78
2023/01/30 13:28:20;;;;;;;29.42;16.20;;;;;;;;;;4989937;28;20042;-76
2023/01/30 13:31:08;;;;;;;30.40;16.30;;;;;;;;;;4998354;28;20443;-77
2023/01/30 13:34:03;;;;;;;32.17;17.23;;;;;;;;;;4985379;28;20091;-78
2023/01/30 13:37:02;;;;;;;28.85;14.48;;;;;;;;;;4999308;28;20382;-80
2023/01/30 13:39:54;;;;;;;27.85;15.20;;;;;;;;;;4998068;28;20370;-79
2023/01/30 13:42:58;;;;;;;27.73;14.10;;;;;;;;;;4996694;28;20046;-79
2023/01/30 13:45:45;;;;;;;28.52;15.48;;;;;;;;;;4996259;28;20018;-79
2023/01/30 13:48:31;;;;;;;26.63;13.93;;;;;;;;;;4996481;28;20026;-78
2023/01/30 13:51:16;;;;;;;26.05;14.80;;;;;;;;;;4982021;28;20030;-79
2023/01/30 13:54:09;;;;;;;30.52;16.58;;;;;;;;;;4995840;28;20026;-77
2023/01/30 13:57:14;;;;;;;27.13;14.13;;;;;;;;;;4981567;28;20033;-77
2023/01/30 14:00:06;;;;;;;27.52;14.70;;;;;;;;;;4982754;28;20057;-78
2023/01/30 14:03:07;;;;;;;25.05;13.35;;;;;;;;;;4985632;28;20022;-76
2023/01/30 14:06:02;;;;;;;26.17;14.27;;;;;;;;;;4985410;28;20026;-77
2023/01/30 14:08:49;;;;;;;25.70;14.00;;;;;;;;;;4984644;28;20023;-76
2023/01/30 14:11:36;;;;;;;31.40;15.07;;;;;;;;;;4999253;28;20057;-77
2023/01/30 14:14:24;;;;;;;32.67;15.60;;;;;;;;;;4998498;28;20130;-76
2023/01/30 14:17:14;;;;;;;39.72;16.73;;;;;;;;;;4998170;28;20057;-77
2023/01/30 14:20:01;;;;;;;46.80;19.27;;;;;;;;;;4999164;28;20407;-74
2023/01/30 14:23:00;;;;;;;48.03;19.80;;;;;;;;;;4984218;28;20116;-72
2023/01/30 14:25:50;;;;;;;53.72;20.20;;;;;;;;;;4997696;28;20046;-75
2023/01/30 14:28:43;;;;;;;58.03;21.08;;;;;;;;;;4998969;28;20022;-73
2023/01/30 14:31:45;;;;;;;56.10;21.80;;;;;;;;;;4998609;28;20026;-74
2023/01/30 14:34:44;;;;;;;54.33;21.75;;;;;;;;;;4997486;28;20018;-74
2023/01/30 14:37:29;;;;;;;54.17;21.60;;;;;;;;;;4978537;28;20349;-74
2023/01/30 14:40:35;;;;;;;55.88;22.48;;;;;;;;;;4978223;28;20507;-72
2023/01/30 14:43:24;;;;;;;56.13;21.95;;;;;;;;;;4978272;28;20062;-73
2023/01/30 14:46:18;;;;;;;58.42;21.83;;;;;;;;;;4977745;28;20097;-75
2023/01/30 14:49:11;;;;;;;52.58;21.30;;;;;;;;;;4963742;28;20018;-72
2023/01/30 14:51:57;;;;;;;61.25;23.33;;;;;;;;;;4978477;28;20536;-74
2023/01/30 14:54:47;;;;;;;58.33;22.20;;;;;;;;;;4964614;28;20089;-74
2023/01/30 14:57:33;;;;;;;52.38;20.95;;;;;;;;;;4964579;28;20026;-77
2023/01/30 15:00:22;;;;;;;54.33;21.48;;;;;;;;;;4978921;28;20019;-73
2023/01/30 15:03:14;;;;;;;53.13;20.90;;;;;;;;;;4978320;28;20050;-73
2023/01/30 15:06:00;;;;;;;49.90;21.08;;;;;;;;;;4978182;28;20057;-72
2023/01/30 15:08:46;;;;;;;46.38;19.83;;;;;;;;;;4978476;28;20436;-77
2023/01/30 15:11:32;;;;;;;48.03;21.40;;;;;;;;;;4977829;28;20046;-74
2023/01/30 15:14:28;;;;;;;51.65;20.15;;;;;;;;;;4978205;28;20026;-73
2023/01/30 15:17:14;;;;;;;47.58;19.40;;;;;;;;;;4978306;28;20447;-73
2023/01/30 15:20:08;;;;;;;41.83;19.55;;;;;;;;;;4978189;28;20088;-72
2023/01/30 15:22:57;;;;;;;44.33;19.95;;;;;;;;;;4977937;28;20026;-73
2023/01/30 15:25:51;;;;;;;46.70;20.48;;;;;;;;;;4977446;28;20054;-72
2023/01/30 15:28:47;;;;;;;44.92;19.75;;;;;;;;;;4978364;28;20029;-73
2023/01/30 15:31:33;;;;;;;47.53;19.20;;;;;;;;;;4978126;28;20101;-73
2023/01/30 15:34:19;;;;;;;47.63;19.70;;;;;;;;;;4978010;28;20105;-73
2023/01/30 15:37:14;;;;;;;47.28;19.98;;;;;;;;;;4981911;28;20054;-73
2023/01/30 15:40:11;;;;;;;48.10;20.70;;;;;;;;;;4996953;28;20026;-74
2023/01/30 15:43:00;;;;;;;49.45;21.60;;;;;;;;;;4996921;28;20030;-69
2023/01/30 15:45:45;;;;;;;45.42;20.75;;;;;;;;;;4982786;28;20033;-75
2023/01/30 15:48:46;;;;;;;49.03;21.05;;;;;;;;;;4983283;28;20022;-75
2023/01/30 15:51:32;;;;;;;48.80;22.13;;;;;;;;;;4996590;28;20014;-76
2023/01/30 15:54:20;;;;;;;53.72;25.33;;;;;;;;;;4997086;28;20026;-72
2023/01/30 15:57:11;;;;;;;59.13;28.23;;;;;;;;;;4983409;28;20018;-74
2023/01/30 15:59:59;;;;;;;66.57;30.20;;;;;;;;;;4996872;28;20125;-74
2023/01/30 16:02:44;;;;;;;59.05;29.27;;;;;;;;;;4997124;28;20069;-74
2023/01/30 16:05:30;;;;;;;54.47;26.10;;;;;;;;;;4996333;28;20022;-73
2023/01/30 16:08:21;;;;;;;55.72;25.92;;;;;;;;;;4996282;28;20024;-74
2023/01/30 16:11:09;;;;;;;57.22;26.63;;;;;;;;;;4996636;28;20018;-74
2023/01/30 16:13:54;;;;;;;58.72;28.33;;;;;;;;;;4982132;28;20467;-75
2023/01/30 16:16:52;;;;;;;57.50;26.50;;;;;;;;;;4996630;28;20105;-74
2023/01/30 16:19:38;;;;;;;63.17;27.25;;;;;;;;;;4982432;28;20471;-73
2023/01/30 16:22:27;;;;;;;63.53;28.75;;;;;;;;;;4996316;28;20084;-75
2023/01/30 16:25:19;;;;;;;54.35;26.20;;;;;;;;;;4996334;28;20455;-74
2023/01/30 16:28:05;;;;;;;63.83;28.50;;;;;;;;;;4996196;28;20037;-74
2023/01/30 16:31:24;;;;;;;60.22;27.40;;;;;;;;;;4981981;28;20026;-70
2023/01/30 16:34:28;;;;;;;55.03;24.25;;;;;;;;;;4992681;28;20053;-73